sensor_id;sensor_type;location;lat;lon;timestamp;P1;durP1;ratioP1;P2;durP2;ratioP2
40290;SDS011;26000;48.304;13.626;2022-09-09T00:01:08;15.57;;;11.60;;
40290;SDS011;26000;48.304;13.626;2022-09-09T00:09:45;17.15;;;11.73;;
40290;SDS011;26000;48.304;13.626;2022-09-09T00:12:24;14.05;;;11.73;;
40290;SDS011;26000;48.304;13.626;2022-09-09T00:20:10;15.40;;;10.95;;
40290;SDS011;26000;48.304;13.626;2022-09-09T00:22:38;15.55;;;11.23;;
40290;SDS011;26000;48.304;13.626;2022-09-09T00:25:11;10.93;;;9.73;;
40290;SDS011;26000;48.304;13.626;2022-09-09T00:27:45;12.02;;;10.50;;
40290;SDS011;26000;48.304;13.626;2022-09-09T00:30:20;25.52;;;10.70;;
40290;SDS011;26000;48.304;13.626;2022-09-09T00:32:49;14.95;;;10.95;;
40290;SDS011;26000;48.304;13.626;2022-09-09T00:38:45;12.85;;;9.63;;
40290;SDS011;26000;48.304;13.626;2022-09-09T00:41:18;12.48;;;9.73;;
40290;SDS011;26000;48.304;13.626;2022-09-09T00:44:00;11.32;;;9.95;;
40290;SDS011;26000;48.304;13.626;2022-09-09T00:46:41;10.65;;;9.18;;
40290;SDS011;26000;48.304;13.626;2022-09-09T00:58:02;11.10;;;9.82;;
40290;SDS011;26000;48.304;13.626;2022-09-09T01:00:31;12.38;;;10.05;;
40290;SDS011;26000;48.304;13.626;2022-09-09T01:16:48;10.95;;;9.27;;
40290;SDS011;26000;48.304;13.626;2022-09-09T01:19:19;10.35;;;9.25;;
40290;SDS011;26000;48.304;13.626;2022-09-09T01:28:02;10.68;;;9.57;;
40290;SDS011;26000;48.304;13.626;2022-09-09T01:30:34;11.00;;;9.30;;
40290;SDS011;26000;48.304;13.626;2022-09-09T01:33:03;11.18;;;9.32;;
40290;SDS011;26000;48.304;13.626;2022-09-09T01:35:35;10.60;;;9.50;;
40290;SDS011;26000;48.304;13.626;2022-09-09T01:38:06;9.93;;;8.90;;
40290;SDS011;26000;48.304;13.626;2022-09-09T01:40:32;10.32;;;8.63;;
40290;SDS011;26000;48.304;13.626;2022-09-09T01:42:58;11.15;;;8.75;;
40290;SDS011;26000;48.304;13.626;2022-09-09T01:45:24;13.85;;;8.77;;
40290;SDS011;26000;48.304;13.626;2022-09-09T01:47:50;10.95;;;9.20;;
40290;SDS011;26000;48.304;13.626;2022-09-09T01:50:17;9.23;;;8.20;;
40290;SDS011;26000;48.304;13.626;2022-09-09T01:52:44;9.43;;;8.40;;
40290;SDS011;26000;48.304;13.626;2022-09-09T01:55:12;11.25;;;9.27;;
40290;SDS011;26000;48.304;13.626;2022-09-09T02:00:08;10.68;;;9.38;;
40290;SDS011;26000;48.304;13.626;2022-09-09T02:05:38;9.90;;;8.90;;
40290;SDS011;26000;48.304;13.626;2022-09-09T02:08:10;10.73;;;9.48;;
40290;SDS011;26000;48.304;13.626;2022-09-09T02:10:42;9.65;;;8.70;;
40290;SDS011;26000;48.304;13.626;2022-09-09T02:13:14;9.75;;;8.75;;
40290;SDS011;26000;48.304;13.626;2022-09-09T02:15:52;9.70;;;8.43;;
40290;SDS011;26000;48.304;13.626;2022-09-09T02:18:35;9.25;;;8.20;;
40290;SDS011;26000;48.304;13.626;2022-09-09T02:21:30;9.50;;;8.50;;
40290;SDS011;26000;48.304;13.626;2022-09-09T02:23:57;9.85;;;8.88;;
40290;SDS011;26000;48.304;13.626;2022-09-09T02:26:25;11.40;;;9.05;;
40290;SDS011;26000;48.304;13.626;2022-09-09T02:28:52;10.00;;;9.00;;
40290;SDS011;26000;48.304;13.626;2022-09-09T02:31:22;10.70;;;7.90;;
40290;SDS011;26000;48.304;13.626;2022-09-09T02:33:54;10.57;;;8.82;;
40290;SDS011;26000;48.304;13.626;2022-09-09T02:36:24;10.82;;;8.57;;
40290;SDS011;26000;48.304;13.626;2022-09-09T02:38:51;11.40;;;9.48;;
40290;SDS011;26000;48.304;13.626;2022-09-09T02:41:34;8.30;;;7.50;;
40290;SDS011;26000;48.304;13.626;2022-09-09T02:44:05;9.52;;;8.52;;
40290;SDS011;26000;48.304;13.626;2022-09-09T02:51:55;11.00;;;9.43;;
40290;SDS011;26000;48.304;13.626;2022-09-09T02:54:32;12.25;;;9.25;;
40290;SDS011;26000;48.304;13.626;2022-09-09T02:57:01;10.25;;;8.48;;
40290;SDS011;26000;48.304;13.626;2022-09-09T02:59:42;12.30;;;8.98;;
40290;SDS011;26000;48.304;13.626;2022-09-09T03:02:09;10.32;;;9.23;;
40290;SDS011;26000;48.304;13.626;2022-09-09T03:04:36;10.30;;;8.73;;
40290;SDS011;26000;48.304;13.626;2022-09-09T03:07:02;11.77;;;9.48;;
40290;SDS011;26000;48.304;13.626;2022-09-09T03:09:28;10.45;;;9.35;;
40290;SDS011;26000;48.304;13.626;2022-09-09T03:11:54;10.25;;;8.80;;
40290;SDS011;26000;48.304;13.626;2022-09-09T03:14:20;9.77;;;8.77;;
40290;SDS011;26000;48.304;13.626;2022-09-09T03:16:49;10.18;;;9.13;;
40290;SDS011;26000;48.304;13.626;2022-09-09T03:19:18;9.52;;;8.52;;
40290;SDS011;26000;48.304;13.626;2022-09-09T03:21:45;9.57;;;8.30;;
40290;SDS011;26000;48.304;13.626;2022-09-09T03:24:12;10.15;;;8.52;;
40290;SDS011;26000;48.304;13.626;2022-09-09T03:26:39;9.55;;;8.43;;
40290;SDS011;26000;48.304;13.626;2022-09-09T03:29:05;9.50;;;8.00;;
40290;SDS011;26000;48.304;13.626;2022-09-09T03:31:32;9.60;;;8.60;;
40290;SDS011;26000;48.304;13.626;2022-09-09T03:33:59;12.43;;;8.90;;
40290;SDS011;26000;48.304;13.626;2022-09-09T03:36:25;10.20;;;9.10;;
40290;SDS011;26000;48.304;13.626;2022-09-09T03:38:52;9.73;;;8.73;;
40290;SDS011;26000;48.304;13.626;2022-09-09T03:41:19;9.90;;;8.90;;
40290;SDS011;26000;48.304;13.626;2022-09-09T03:43:44;11.65;;;10.13;;
40290;SDS011;26000;48.304;13.626;2022-09-09T03:46:10;11.98;;;8.98;;
40290;SDS011;26000;48.304;13.626;2022-09-09T03:48:36;18.45;;;10.63;;
40290;SDS011;26000;48.304;13.626;2022-09-09T03:51:01;15.10;;;10.50;;
40290;SDS011;26000;48.304;13.626;2022-09-09T03:53:28;15.55;;;11.65;;
40290;SDS011;26000;48.304;13.626;2022-09-09T03:55:55;16.33;;;11.55;;
40290;SDS011;26000;48.304;13.626;2022-09-09T03:58:24;12.05;;;10.70;;
40290;SDS011;26000;48.304;13.626;2022-09-09T04:00:59;13.10;;;11.20;;
40290;SDS011;26000;48.304;13.626;2022-09-09T04:03:26;13.98;;;11.35;;
40290;SDS011;26000;48.304;13.626;2022-09-09T04:05:52;20.00;;;11.48;;
40290;SDS011;26000;48.304;13.626;2022-09-09T04:08:19;18.42;;;11.77;;
40290;SDS011;26000;48.304;13.626;2022-09-09T04:10:46;15.00;;;11.18;;
40290;SDS011;26000;48.304;13.626;2022-09-09T04:13:13;16.38;;;11.40;;
40290;SDS011;26000;48.304;13.626;2022-09-09T04:15:41;13.30;;;11.07;;
40290;SDS011;26000;48.304;13.626;2022-09-09T04:18:07;15.13;;;11.57;;
40290;SDS011;26000;48.304;13.626;2022-09-09T04:20:33;14.65;;;11.93;;
40290;SDS011;26000;48.304;13.626;2022-09-09T04:22:59;15.25;;;12.13;;
40290;SDS011;26000;48.304;13.626;2022-09-09T04:25:24;13.90;;;11.45;;
40290;SDS011;26000;48.304;13.626;2022-09-09T04:27:54;15.57;;;11.80;;
40290;SDS011;26000;48.304;13.626;2022-09-09T04:30:20;16.45;;;13.00;;
40290;SDS011;26000;48.304;13.626;2022-09-09T04:32:46;18.33;;;12.77;;
40290;SDS011;26000;48.304;13.626;2022-09-09T04:35:12;17.13;;;12.45;;
40290;SDS011;26000;48.304;13.626;2022-09-09T04:37:37;16.92;;;13.10;;
40290;SDS011;26000;48.304;13.626;2022-09-09T04:40:03;16.27;;;12.02;;
40290;SDS011;26000;48.304;13.626;2022-09-09T04:42:29;19.58;;;13.38;;
40290;SDS011;26000;48.304;13.626;2022-09-09T04:44:55;19.45;;;13.45;;
40290;SDS011;26000;48.304;13.626;2022-09-09T04:47:20;18.02;;;12.95;;
40290;SDS011;26000;48.304;13.626;2022-09-09T04:49:46;19.10;;;13.35;;
40290;SDS011;26000;48.304;13.626;2022-09-09T04:52:12;24.08;;;15.25;;
40290;SDS011;26000;48.304;13.626;2022-09-09T04:54:38;17.67;;;13.02;;
40290;SDS011;26000;48.304;13.626;2022-09-09T04:57:04;16.50;;;12.00;;
40290;SDS011;26000;48.304;13.626;2022-09-09T04:59:30;17.08;;;12.00;;
40290;SDS011;26000;48.304;13.626;2022-09-09T05:01:55;16.67;;;12.02;;
40290;SDS011;26000;48.304;13.626;2022-09-09T05:04:21;17.85;;;12.52;;
40290;SDS011;26000;48.304;13.626;2022-09-09T05:06:46;16.92;;;12.05;;
40290;SDS011;26000;48.304;13.626;2022-09-09T05:09:13;16.45;;;12.98;;
40290;SDS011;26000;48.304;13.626;2022-09-09T05:11:38;17.77;;;12.40;;
40290;SDS011;26000;48.304;13.626;2022-09-09T05:14:04;16.42;;;12.40;;
40290;SDS011;26000;48.304;13.626;2022-09-09T05:16:30;14.55;;;11.00;;
40290;SDS011;26000;48.304;13.626;2022-09-09T05:18:55;17.35;;;13.00;;
40290;SDS011;26000;48.304;13.626;2022-09-09T05:21:22;21.15;;;15.02;;
40290;SDS011;26000;48.304;13.626;2022-09-09T05:23:51;17.42;;;13.88;;
40290;SDS011;26000;48.304;13.626;2022-09-09T05:26:18;15.63;;;12.00;;
40290;SDS011;26000;48.304;13.626;2022-09-09T05:28:45;14.68;;;11.07;;
40290;SDS011;26000;48.304;13.626;2022-09-09T05:31:12;15.30;;;11.25;;
40290;SDS011;26000;48.304;13.626;2022-09-09T05:33:39;16.25;;;11.55;;
40290;SDS011;26000;48.304;13.626;2022-09-09T05:36:08;13.85;;;10.80;;
40290;SDS011;26000;48.304;13.626;2022-09-09T05:38:41;13.90;;;10.75;;
40290;SDS011;26000;48.304;13.626;2022-09-09T05:41:08;16.08;;;12.07;;
40290;SDS011;26000;48.304;13.626;2022-09-09T05:43:35;15.30;;;11.45;;
40290;SDS011;26000;48.304;13.626;2022-09-09T05:46:08;17.52;;;12.90;;
40290;SDS011;26000;48.304;13.626;2022-09-09T05:48:36;16.52;;;11.63;;
40290;SDS011;26000;48.304;13.626;2022-09-09T05:51:03;16.95;;;12.00;;
40290;SDS011;26000;48.304;13.626;2022-09-09T05:53:30;19.40;;;14.18;;
40290;SDS011;26000;48.304;13.626;2022-09-09T05:56:03;16.83;;;12.88;;
40290;SDS011;26000;48.304;13.626;2022-09-09T05:58:33;18.52;;;12.75;;
40290;SDS011;26000;48.304;13.626;2022-09-09T06:01:03;16.63;;;12.35;;
40290;SDS011;26000;48.304;13.626;2022-09-09T06:03:37;17.02;;;12.13;;
40290;SDS011;26000;48.304;13.626;2022-09-09T06:06:05;15.38;;;11.15;;
40290;SDS011;26000;48.304;13.626;2022-09-09T06:08:33;14.43;;;10.73;;
40290;SDS011;26000;48.304;13.626;2022-09-09T06:11:09;14.27;;;10.52;;
40290;SDS011;26000;48.304;13.626;2022-09-09T06:13:39;14.55;;;11.05;;
40290;SDS011;26000;48.304;13.626;2022-09-09T06:16:05;13.73;;;10.13;;
40290;SDS011;26000;48.304;13.626;2022-09-09T06:18:38;13.18;;;10.52;;
40290;SDS011;26000;48.304;13.626;2022-09-09T06:21:05;13.40;;;10.10;;
40290;SDS011;26000;48.304;13.626;2022-09-09T06:23:32;13.18;;;10.07;;
40290;SDS011;26000;48.304;13.626;2022-09-09T06:26:02;14.98;;;10.93;;
40290;SDS011;26000;48.304;13.626;2022-09-09T06:28:33;16.80;;;13.00;;
40290;SDS011;26000;48.304;13.626;2022-09-09T06:31:03;19.67;;;13.23;;
40290;SDS011;26000;48.304;13.626;2022-09-09T06:33:31;17.58;;;12.30;;
40290;SDS011;26000;48.304;13.626;2022-09-09T06:36:00;18.65;;;13.30;;
40290;SDS011;26000;48.304;13.626;2022-09-09T06:38:27;17.30;;;13.13;;
40290;SDS011;26000;48.304;13.626;2022-09-09T06:40:53;19.20;;;13.73;;
40290;SDS011;26000;48.304;13.626;2022-09-09T06:43:21;22.05;;;13.07;;
40290;SDS011;26000;48.304;13.626;2022-09-09T06:45:55;18.88;;;14.60;;
40290;SDS011;26000;48.304;13.626;2022-09-09T06:48:25;18.48;;;13.85;;
40290;SDS011;26000;48.304;13.626;2022-09-09T06:50:51;20.67;;;14.95;;
40290;SDS011;26000;48.304;13.626;2022-09-09T06:53:26;17.48;;;13.05;;
40290;SDS011;26000;48.304;13.626;2022-09-09T06:55:52;18.15;;;13.27;;
40290;SDS011;26000;48.304;13.626;2022-09-09T06:58:18;18.20;;;13.95;;
40290;SDS011;26000;48.304;13.626;2022-09-09T07:00:43;19.40;;;14.38;;
40290;SDS011;26000;48.304;13.626;2022-09-09T07:03:09;19.38;;;14.43;;
40290;SDS011;26000;48.304;13.626;2022-09-09T07:05:35;19.98;;;14.23;;
40290;SDS011;26000;48.304;13.626;2022-09-09T07:08:02;20.30;;;15.32;;
40290;SDS011;26000;48.304;13.626;2022-09-09T07:10:27;19.85;;;14.73;;
40290;SDS011;26000;48.304;13.626;2022-09-09T07:12:53;22.40;;;15.70;;
40290;SDS011;26000;48.304;13.626;2022-09-09T07:15:19;23.98;;;15.68;;
40290;SDS011;26000;48.304;13.626;2022-09-09T07:17:46;23.92;;;16.15;;
40290;SDS011;26000;48.304;13.626;2022-09-09T07:20:12;23.92;;;16.23;;
40290;SDS011;26000;48.304;13.626;2022-09-09T07:22:39;25.63;;;17.27;;
40290;SDS011;26000;48.304;13.626;2022-09-09T07:25:05;22.85;;;16.08;;
40290;SDS011;26000;48.304;13.626;2022-09-09T07:27:31;22.55;;;15.35;;
40290;SDS011;26000;48.304;13.626;2022-09-09T07:29:57;21.77;;;16.08;;
40290;SDS011;26000;48.304;13.626;2022-09-09T07:32:23;23.70;;;16.30;;
40290;SDS011;26000;48.304;13.626;2022-09-09T07:34:50;22.33;;;16.35;;
40290;SDS011;26000;48.304;13.626;2022-09-09T07:37:16;25.17;;;17.63;;
40290;SDS011;26000;48.304;13.626;2022-09-09T07:39:42;26.45;;;18.75;;
40290;SDS011;26000;48.304;13.626;2022-09-09T07:42:08;23.15;;;17.33;;
40290;SDS011;26000;48.304;13.626;2022-09-09T07:44:36;25.85;;;17.42;;
40290;SDS011;26000;48.304;13.626;2022-09-09T07:47:04;22.73;;;16.13;;
40290;SDS011;26000;48.304;13.626;2022-09-09T07:49:30;22.70;;;16.35;;
40290;SDS011;26000;48.304;13.626;2022-09-09T07:51:57;26.60;;;18.63;;
40290;SDS011;26000;48.304;13.626;2022-09-09T07:54:24;28.08;;;17.48;;
40290;SDS011;26000;48.304;13.626;2022-09-09T07:56:51;24.98;;;17.20;;
40290;SDS011;26000;48.304;13.626;2022-09-09T07:59:17;26.67;;;18.00;;
40290;SDS011;26000;48.304;13.626;2022-09-09T08:01:48;25.45;;;18.08;;
40290;SDS011;26000;48.304;13.626;2022-09-09T08:04:18;32.08;;;19.80;;
40290;SDS011;26000;48.304;13.626;2022-09-09T08:06:46;30.60;;;21.58;;
40290;SDS011;26000;48.304;13.626;2022-09-09T08:09:17;31.30;;;21.10;;
40290;SDS011;26000;48.304;13.626;2022-09-09T08:11:44;34.75;;;22.38;;
40290;SDS011;26000;48.304;13.626;2022-09-09T08:14:10;32.55;;;22.10;;
40290;SDS011;26000;48.304;13.626;2022-09-09T08:16:37;34.80;;;22.80;;
40290;SDS011;26000;48.304;13.626;2022-09-09T08:19:05;30.48;;;21.10;;
40290;SDS011;26000;48.304;13.626;2022-09-09T08:21:32;32.15;;;21.70;;
40290;SDS011;26000;48.304;13.626;2022-09-09T08:24:01;32.22;;;21.40;;
40290;SDS011;26000;48.304;13.626;2022-09-09T08:26:28;29.80;;;20.05;;
40290;SDS011;26000;48.304;13.626;2022-09-09T08:28:56;26.38;;;19.30;;
40290;SDS011;26000;48.304;13.626;2022-09-09T08:31:27;29.92;;;19.90;;
40290;SDS011;26000;48.304;13.626;2022-09-09T08:33:55;25.65;;;17.55;;
40290;SDS011;26000;48.304;13.626;2022-09-09T08:36:24;26.08;;;17.85;;
40290;SDS011;26000;48.304;13.626;2022-09-09T08:38:52;25.27;;;16.75;;
40290;SDS011;26000;48.304;13.626;2022-09-09T08:44:04;21.92;;;14.85;;
40290;SDS011;26000;48.304;13.626;2022-09-09T08:46:48;21.02;;;15.02;;
40290;SDS011;26000;48.304;13.626;2022-09-09T08:49:24;23.70;;;14.75;;
40290;SDS011;26000;48.304;13.626;2022-09-09T08:51:56;20.10;;;14.48;;
40290;SDS011;26000;48.304;13.626;2022-09-09T08:54:23;22.38;;;14.20;;
40290;SDS011;26000;48.304;13.626;2022-09-09T08:56:51;27.98;;;13.60;;
40290;SDS011;26000;48.304;13.626;2022-09-09T08:59:17;21.35;;;15.10;;
40290;SDS011;26000;48.304;13.626;2022-09-09T09:02:02;21.85;;;14.85;;
40290;SDS011;26000;48.304;13.626;2022-09-09T09:04:45;22.40;;;15.43;;
40290;SDS011;26000;48.304;13.626;2022-09-09T09:12:48;37.03;;;23.88;;
40290;SDS011;26000;48.304;13.626;2022-09-09T09:15:19;35.95;;;22.50;;
40290;SDS011;26000;48.304;13.626;2022-09-09T09:17:47;34.60;;;22.88;;
40290;SDS011;26000;48.304;13.626;2022-09-09T09:20:15;34.45;;;22.38;;
40290;SDS011;26000;48.304;13.626;2022-09-09T09:25:16;29.95;;;19.60;;
40290;SDS011;26000;48.304;13.626;2022-09-09T09:28:00;26.23;;;17.63;;
40290;SDS011;26000;48.304;13.626;2022-09-09T09:30:51;25.85;;;18.15;;
40290;SDS011;26000;48.304;13.626;2022-09-09T09:36:00;21.25;;;13.10;;
40290;SDS011;26000;48.304;13.626;2022-09-09T09:38:28;15.18;;;11.48;;
40290;SDS011;26000;48.304;13.626;2022-09-09T09:40:55;13.70;;;10.73;;
40290;SDS011;26000;48.304;13.626;2022-09-09T09:43:29;12.68;;;9.90;;
40290;SDS011;26000;48.304;13.626;2022-09-09T09:45:57;12.20;;;9.73;;
40290;SDS011;26000;48.304;13.626;2022-09-09T09:48:23;11.13;;;8.80;;
40290;SDS011;26000;48.304;13.626;2022-09-09T09:50:51;11.52;;;8.82;;
40290;SDS011;26000;48.304;13.626;2022-09-09T09:53:24;12.07;;;8.40;;
40290;SDS011;26000;48.304;13.626;2022-09-09T09:55:58;11.02;;;8.48;;
40290;SDS011;26000;48.304;13.626;2022-09-09T09:58:27;9.57;;;8.07;;
40290;SDS011;26000;48.304;13.626;2022-09-09T10:00:59;11.57;;;8.80;;
40290;SDS011;26000;48.304;13.626;2022-09-09T10:03:32;9.85;;;7.85;;
40290;SDS011;26000;48.304;13.626;2022-09-09T10:06:02;13.18;;;9.70;;
40290;SDS011;26000;48.304;13.626;2022-09-09T10:08:28;12.35;;;8.95;;
40290;SDS011;26000;48.304;13.626;2022-09-09T10:17:13;13.10;;;9.45;;
40290;SDS011;26000;48.304;13.626;2022-09-09T10:19:42;14.63;;;11.05;;
40290;SDS011;26000;48.304;13.626;2022-09-09T10:24:51;14.88;;;10.85;;
40290;SDS011;26000;48.304;13.626;2022-09-09T10:30:33;13.10;;;9.48;;
40290;SDS011;26000;48.304;13.626;2022-09-09T10:33:19;15.18;;;9.77;;
40290;SDS011;26000;48.304;13.626;2022-09-09T10:36:03;13.82;;;9.75;;
40290;SDS011;26000;48.304;13.626;2022-09-09T10:38:46;12.50;;;8.80;;
40290;SDS011;26000;48.304;13.626;2022-09-09T10:44:11;10.55;;;8.13;;
40290;SDS011;26000;48.304;13.626;2022-09-09T10:52:37;14.60;;;7.68;;
40290;SDS011;26000;48.304;13.626;2022-09-09T10:55:15;11.55;;;7.90;;
40290;SDS011;26000;48.304;13.626;2022-09-09T11:00:19;12.38;;;7.95;;
40290;SDS011;26000;48.304;13.626;2022-09-09T11:03:06;13.07;;;8.25;;
40290;SDS011;26000;48.304;13.626;2022-09-09T11:08:28;13.98;;;9.57;;
40290;SDS011;26000;48.304;13.626;2022-09-09T11:21:45;17.30;;;10.35;;
40290;SDS011;26000;48.304;13.626;2022-09-09T11:26:54;18.25;;;12.02;;
40290;SDS011;26000;48.304;13.626;2022-09-09T11:32:17;16.80;;;11.32;;
40290;SDS011;26000;48.304;13.626;2022-09-09T11:40:41;16.23;;;11.38;;
40290;SDS011;26000;48.304;13.626;2022-09-09T11:43:12;19.13;;;12.43;;
40290;SDS011;26000;48.304;13.626;2022-09-09T11:46:07;20.85;;;12.68;;
40290;SDS011;26000;48.304;13.626;2022-09-09T11:48:35;17.63;;;12.85;;
40290;SDS011;26000;48.304;13.626;2022-09-09T11:53:53;21.13;;;12.63;;
40290;SDS011;26000;48.304;13.626;2022-09-09T11:56:33;19.27;;;12.13;;
40290;SDS011;26000;48.304;13.626;2022-09-09T11:59:19;17.08;;;11.25;;
40290;SDS011;26000;48.304;13.626;2022-09-09T12:01:48;16.23;;;10.75;;
40290;SDS011;26000;48.304;13.626;2022-09-09T12:06:51;17.85;;;11.70;;
40290;SDS011;26000;48.304;13.626;2022-09-09T12:14:43;17.23;;;10.93;;
40290;SDS011;26000;48.304;13.626;2022-09-09T12:17:24;19.27;;;12.63;;
40290;SDS011;26000;48.304;13.626;2022-09-09T12:22:42;18.67;;;11.45;;
40290;SDS011;26000;48.304;13.626;2022-09-09T12:30:42;16.38;;;11.63;;
40290;SDS011;26000;48.304;13.626;2022-09-09T12:33:18;16.75;;;11.25;;
40290;SDS011;26000;48.304;13.626;2022-09-09T12:35:45;18.00;;;11.20;;
40290;SDS011;26000;48.304;13.626;2022-09-09T12:38:22;15.60;;;10.15;;
40290;SDS011;26000;48.304;13.626;2022-09-09T12:41:02;18.15;;;11.13;;
40290;SDS011;26000;48.304;13.626;2022-09-09T12:43:27;17.48;;;11.27;;
40290;SDS011;26000;48.304;13.626;2022-09-09T12:45:58;14.52;;;9.43;;
40290;SDS011;26000;48.304;13.626;2022-09-09T12:48:29;13.38;;;9.40;;
40290;SDS011;26000;48.304;13.626;2022-09-09T12:51:01;13.65;;;10.15;;
40290;SDS011;26000;48.304;13.626;2022-09-09T12:53:31;12.13;;;8.82;;
40290;SDS011;26000;48.304;13.626;2022-09-09T12:56:03;15.00;;;9.65;;
40290;SDS011;26000;48.304;13.626;2022-09-09T12:58:32;14.07;;;10.07;;
40290;SDS011;26000;48.304;13.626;2022-09-09T13:00:59;14.30;;;10.38;;
40290;SDS011;26000;48.304;13.626;2022-09-09T13:03:28;12.95;;;9.40;;
40290;SDS011;26000;48.304;13.626;2022-09-09T13:05:56;14.95;;;10.27;;
40290;SDS011;26000;48.304;13.626;2022-09-09T13:08:25;17.98;;;10.65;;
40290;SDS011;26000;48.304;13.626;2022-09-09T13:10:56;12.70;;;8.60;;
40290;SDS011;26000;48.304;13.626;2022-09-09T13:13:29;13.85;;;9.98;;
40290;SDS011;26000;48.304;13.626;2022-09-09T13:16:04;17.92;;;8.93;;
40290;SDS011;26000;48.304;13.626;2022-09-09T13:18:37;12.52;;;8.80;;
40290;SDS011;26000;48.304;13.626;2022-09-09T13:21:05;13.07;;;8.55;;
40290;SDS011;26000;48.304;13.626;2022-09-09T13:23:35;12.93;;;8.35;;
40290;SDS011;26000;48.304;13.626;2022-09-09T13:26:04;9.77;;;8.00;;
40290;SDS011;26000;48.304;13.626;2022-09-09T13:28:33;12.48;;;7.80;;
40290;SDS011;26000;48.304;13.626;2022-09-09T13:33:29;9.52;;;7.38;;
40290;SDS011;26000;48.304;13.626;2022-09-09T13:35:56;10.82;;;8.68;;
40290;SDS011;26000;48.304;13.626;2022-09-09T13:38:24;6.90;;;6.15;;
40290;SDS011;26000;48.304;13.626;2022-09-09T13:40:54;5.75;;;4.97;;
40290;SDS011;26000;48.304;13.626;2022-09-09T13:43:44;6.80;;;4.85;;
40290;SDS011;26000;48.304;13.626;2022-09-09T13:48:57;6.40;;;4.20;;
40290;SDS011;26000;48.304;13.626;2022-09-09T13:53:55;4.53;;;4.13;;
40290;SDS011;26000;48.304;13.626;2022-09-09T13:56:22;4.22;;;3.53;;
40290;SDS011;26000;48.304;13.626;2022-09-09T13:58:48;4.55;;;3.78;;
40290;SDS011;26000;48.304;13.626;2022-09-09T14:01:13;5.60;;;4.10;;
40290;SDS011;26000;48.304;13.626;2022-09-09T14:03:39;5.85;;;4.07;;
40290;SDS011;26000;48.304;13.626;2022-09-09T14:06:05;7.53;;;4.90;;
40290;SDS011;26000;48.304;13.626;2022-09-09T14:08:32;7.53;;;5.00;;
40290;SDS011;26000;48.304;13.626;2022-09-09T14:11:02;6.80;;;4.88;;
40290;SDS011;26000;48.304;13.626;2022-09-09T14:13:28;6.50;;;4.38;;
40290;SDS011;26000;48.304;13.626;2022-09-09T14:15:54;5.40;;;4.32;;
40290;SDS011;26000;48.304;13.626;2022-09-09T14:18:19;8.05;;;4.82;;
40290;SDS011;26000;48.304;13.626;2022-09-09T14:20:47;5.57;;;4.90;;
40290;SDS011;26000;48.304;13.626;2022-09-09T14:23:13;8.50;;;4.05;;
40290;SDS011;26000;48.304;13.626;2022-09-09T14:25:42;4.25;;;3.83;;
40290;SDS011;26000;48.304;13.626;2022-09-09T14:28:09;6.13;;;4.40;;
40290;SDS011;26000;48.304;13.626;2022-09-09T14:30:37;5.57;;;3.85;;
40290;SDS011;26000;48.304;13.626;2022-09-09T14:33:04;4.60;;;4.18;;
40290;SDS011;26000;48.304;13.626;2022-09-09T14:35:29;5.22;;;4.10;;
40290;SDS011;26000;48.304;13.626;2022-09-09T14:37:55;4.32;;;3.92;;
40290;SDS011;26000;48.304;13.626;2022-09-09T14:40:21;5.72;;;3.70;;
40290;SDS011;26000;48.304;13.626;2022-09-09T14:42:47;6.13;;;3.85;;
40290;SDS011;26000;48.304;13.626;2022-09-09T14:45:12;6.90;;;3.50;;
40290;SDS011;26000;48.304;13.626;2022-09-09T14:47:38;5.10;;;3.75;;
40290;SDS011;26000;48.304;13.626;2022-09-09T14:50:04;3.85;;;3.42;;
40290;SDS011;26000;48.304;13.626;2022-09-09T14:52:31;3.63;;;3.33;;
40290;SDS011;26000;48.304;13.626;2022-09-09T14:54:56;4.75;;;3.55;;
40290;SDS011;26000;48.304;13.626;2022-09-09T14:57:22;5.13;;;3.40;;
40290;SDS011;26000;48.304;13.626;2022-09-09T14:59:48;3.45;;;2.90;;
40290;SDS011;26000;48.304;13.626;2022-09-09T15:02:15;5.68;;;3.97;;
40290;SDS011;26000;48.304;13.626;2022-09-09T15:04:41;5.18;;;3.40;;
40290;SDS011;26000;48.304;13.626;2022-09-09T15:07:07;3.67;;;3.13;;
40290;SDS011;26000;48.304;13.626;2022-09-09T15:09:32;5.43;;;3.50;;
40290;SDS011;26000;48.304;13.626;2022-09-09T15:11:58;5.20;;;3.10;;
40290;SDS011;26000;48.304;13.626;2022-09-09T15:14:24;4.22;;;3.20;;
40290;SDS011;26000;48.304;13.626;2022-09-09T15:16:51;3.97;;;3.13;;
40290;SDS011;26000;48.304;13.626;2022-09-09T15:19:16;5.43;;;3.60;;
40290;SDS011;26000;48.304;13.626;2022-09-09T15:21:42;3.80;;;2.97;;
40290;SDS011;26000;48.304;13.626;2022-09-09T15:24:07;6.93;;;3.78;;
40290;SDS011;26000;48.304;13.626;2022-09-09T15:26:33;5.55;;;3.25;;
40290;SDS011;26000;48.304;13.626;2022-09-09T15:28:59;4.07;;;3.13;;
40290;SDS011;26000;48.304;13.626;2022-09-09T15:31:26;5.63;;;3.05;;
40290;SDS011;26000;48.304;13.626;2022-09-09T15:36:30;7.30;;;3.20;;
40290;SDS011;26000;48.304;13.626;2022-09-09T15:39:04;4.88;;;2.97;;
40290;SDS011;26000;48.304;13.626;2022-09-09T15:41:32;6.20;;;3.28;;
40290;SDS011;26000;48.304;13.626;2022-09-09T15:43:58;4.57;;;2.97;;
40290;SDS011;26000;48.304;13.626;2022-09-09T15:46:32;3.90;;;2.85;;
40290;SDS011;26000;48.304;13.626;2022-09-09T15:49:03;3.67;;;3.00;;
40290;SDS011;26000;48.304;13.626;2022-09-09T15:51:28;3.60;;;2.47;;
40290;SDS011;26000;48.304;13.626;2022-09-09T15:53:55;3.60;;;2.50;;
40290;SDS011;26000;48.304;13.626;2022-09-09T15:56:28;3.78;;;2.50;;
40290;SDS011;26000;48.304;13.626;2022-09-09T15:58:57;2.88;;;2.25;;
40290;SDS011;26000;48.304;13.626;2022-09-09T16:01:24;2.58;;;2.22;;
40290;SDS011;26000;48.304;13.626;2022-09-09T16:03:51;3.25;;;2.22;;
40290;SDS011;26000;48.304;13.626;2022-09-09T16:06:18;4.85;;;2.75;;
40290;SDS011;26000;48.304;13.626;2022-09-09T16:08:46;2.63;;;2.10;;
40290;SDS011;26000;48.304;13.626;2022-09-09T16:11:25;4.00;;;2.20;;
40290;SDS011;26000;48.304;13.626;2022-09-09T16:13:52;3.03;;;2.00;;
40290;SDS011;26000;48.304;13.626;2022-09-09T16:16:20;4.97;;;2.00;;
40290;SDS011;26000;48.304;13.626;2022-09-09T16:18:59;2.05;;;1.80;;
40290;SDS011;26000;48.304;13.626;2022-09-09T16:21:31;2.97;;;1.90;;
40290;SDS011;26000;48.304;13.626;2022-09-09T16:23:59;2.28;;;1.88;;
40290;SDS011;26000;48.304;13.626;2022-09-09T16:26:26;4.70;;;1.95;;
40290;SDS011;26000;48.304;13.626;2022-09-09T16:28:53;3.10;;;1.90;;
40290;SDS011;26000;48.304;13.626;2022-09-09T16:31:26;2.58;;;1.80;;
40290;SDS011;26000;48.304;13.626;2022-09-09T16:33:53;2.42;;;1.88;;
40290;SDS011;26000;48.304;13.626;2022-09-09T16:36:19;3.17;;;2.10;;
40290;SDS011;26000;48.304;13.626;2022-09-09T16:38:47;2.53;;;1.90;;
40290;SDS011;26000;48.304;13.626;2022-09-09T16:41:16;3.13;;;2.00;;
40290;SDS011;26000;48.304;13.626;2022-09-09T16:43:42;1.85;;;1.40;;
40290;SDS011;26000;48.304;13.626;2022-09-09T16:46:12;4.07;;;1.65;;
40290;SDS011;26000;48.304;13.626;2022-09-09T16:48:38;1.75;;;1.40;;
40290;SDS011;26000;48.304;13.626;2022-09-09T16:51:05;2.05;;;1.40;;
40290;SDS011;26000;48.304;13.626;2022-09-09T16:53:32;1.67;;;1.17;;
40290;SDS011;26000;48.304;13.626;2022-09-09T16:55:58;1.85;;;1.02;;